Startpagina
METAR-TAF:

METAR-TAF

Vliegvelden :

Rijsel, Frankrijk

Aéroport de Lille-Lesquin

breedte: 50-34N, lengte: 003-06E, hoogte: 48 m

Actueel weer

Dit bericht is 35 minuten geleden gemaakt, om 01:30 UTC
Wind 4 kt uit het westzuidwesten
Temperatuur 8°C
Vochtigheid 93%
Druk 1022 hPa
Zicht: 9000 m

METAR: LFQQ 200130Z AUTO 25004KT 9000 NSC 08/07 Q1022 TEMPO 4000 BR

Tijdstip: 04:05 (02:05 UTC)

Verwachting

Dit bericht is 3 uur en het 5 minuten geleden gemaakt, om 23:00 UTC
Verwachting geldig van 20 om 00 UTC tot 21 om 06 UTC
Wind 5 kt uit het westzuidwesten
Zicht: 8000 m
Verspreide wolken op 4500 ft
Kans 30%
van 20 om 03 UTC tot 20 om 06 UTC
Zicht: 4000 m
nevel
Kans 30% :
Tijdelijke
van 20 om 14 UTC tot 20 om 16 UTC
Zicht: 4000 m
regenbuien

TAF: LFQQ 192300Z 2000/2106 25005KT 8000 SCT045 PROB30 2003/2006 4000 BR PROB30 TEMPO 2014/2016 4000 SHRA

Waarnemingen en weersverwachtingen van meer dan 4000 vliegvelden (METAR en TAF).

De beschikbare stations zijn de gele en rode punten op de kaart.

Ga met uw muis naar het station om de naam te zien.

Klik dan om waarnemingen en weersverwachtingen te zien.

kaart wijzigen: klik op de groene knoppen met een zwart kruis om in te zoomen, op de groene knop met een streepje om uit te zoomen of op de groene pijlen voor aangrenzende kaarten.


METAR-TAF: